sensor_id;sensor_type;location;lat;lon;timestamp;temperature;humidity
2387;DHT22;49473;50.772;8.768;2023-07-24T00:02:25;17.00;99.90
2387;DHT22;49473;50.772;8.768;2023-07-24T00:04:52;17.00;99.90
2387;DHT22;49473;50.772;8.768;2023-07-24T00:07:20;16.90;99.90
2387;DHT22;49473;50.772;8.768;2023-07-24T00:09:48;16.80;99.90
2387;DHT22;49473;50.772;8.768;2023-07-24T00:12:14;16.80;99.90
2387;DHT22;49473;50.772;8.768;2023-07-24T00:14:41;16.80;99.90
2387;DHT22;49473;50.772;8.768;2023-07-24T00:17:08;16.70;99.90
2387;DHT22;49473;50.772;8.768;2023-07-24T00:19:34;16.70;99.90
2387;DHT22;49473;50.772;8.768;2023-07-24T00:22:01;16.60;99.90
2387;DHT22;49473;50.772;8.768;2023-07-24T00:24:30;16.60;99.90
2387;DHT22;49473;50.772;8.768;2023-07-24T00:26:57;16.60;99.90
2387;DHT22;49473;50.772;8.768;2023-07-24T00:29:24;16.60;99.90
2387;DHT22;49473;50.772;8.768;2023-07-24T00:31:50;16.60;99.90
2387;DHT22;49473;50.772;8.768;2023-07-24T00:34:18;16.60;99.90
2387;DHT22;49473;50.772;8.768;2023-07-24T00:36:44;16.60;99.90
2387;DHT22;49473;50.772;8.768;2023-07-24T00:39:13;16.60;99.90
2387;DHT22;49473;50.772;8.768;2023-07-24T00:41:41;16.50;99.90
2387;DHT22;49473;50.772;8.768;2023-07-24T00:44:08;16.40;99.90
2387;DHT22;49473;50.772;8.768;2023-07-24T00:46:35;16.40;99.90
2387;DHT22;49473;50.772;8.768;2023-07-24T00:49:03;16.40;99.90
2387;DHT22;49473;50.772;8.768;2023-07-24T00:51:30;16.40;99.90
2387;DHT22;49473;50.772;8.768;2023-07-24T00:53:59;16.40;99.90
2387;DHT22;49473;50.772;8.768;2023-07-24T00:56:26;16.40;99.90
2387;DHT22;49473;50.772;8.768;2023-07-24T00:58:55;16.40;99.90
2387;DHT22;49473;50.772;8.768;2023-07-24T01:01:23;16.30;99.90
2387;DHT22;49473;50.772;8.768;2023-07-24T01:03:51;16.40;99.90
2387;DHT22;49473;50.772;8.768;2023-07-24T01:06:17;16.30;99.90
2387;DHT22;49473;50.772;8.768;2023-07-24T01:08:44;16.20;99.90
2387;DHT22;49473;50.772;8.768;2023-07-24T01:11:15;16.20;99.90
2387;DHT22;49473;50.772;8.768;2023-07-24T01:13:49;16.20;99.90
2387;DHT22;49473;50.772;8.768;2023-07-24T01:16:21;16.30;99.90
2387;DHT22;49473;50.772;8.768;2023-07-24T01:18:51;16.30;99.90
2387;DHT22;49473;50.772;8.768;2023-07-24T01:21:21;16.20;99.90
2387;DHT22;49473;50.772;8.768;2023-07-24T01:23:59;16.00;99.90
2387;DHT22;49473;50.772;8.768;2023-07-24T01:26:31;15.90;99.90
2387;DHT22;49473;50.772;8.768;2023-07-24T01:28:58;16.00;99.90
2387;DHT22;49473;50.772;8.768;2023-07-24T01:31:25;16.00;99.90
2387;DHT22;49473;50.772;8.768;2023-07-24T01:33:51;16.10;99.90
2387;DHT22;49473;50.772;8.768;2023-07-24T01:36:18;16.00;99.90
2387;DHT22;49473;50.772;8.768;2023-07-24T01:38:47;15.90;99.90
2387;DHT22;49473;50.772;8.768;2023-07-24T01:41:14;15.90;99.90
2387;DHT22;49473;50.772;8.768;2023-07-24T01:43:43;15.80;99.90
2387;DHT22;49473;50.772;8.768;2023-07-24T01:46:10;15.70;99.90
2387;DHT22;49473;50.772;8.768;2023-07-24T01:48:36;15.70;99.90
2387;DHT22;49473;50.772;8.768;2023-07-24T01:51:03;15.70;99.90
2387;DHT22;49473;50.772;8.768;2023-07-24T01:53:30;15.70;99.90
2387;DHT22;49473;50.772;8.768;2023-07-24T01:55:58;15.70;99.90
2387;DHT22;49473;50.772;8.768;2023-07-24T01:58:25;15.80;99.90
2387;DHT22;49473;50.772;8.768;2023-07-24T02:00:54;15.70;99.90
2387;DHT22;49473;50.772;8.768;2023-07-24T02:03:21;15.50;99.90
2387;DHT22;49473;50.772;8.768;2023-07-24T02:05:49;15.40;99.90
2387;DHT22;49473;50.772;8.768;2023-07-24T02:08:17;15.30;99.90
2387;DHT22;49473;50.772;8.768;2023-07-24T02:10:43;15.30;99.90
2387;DHT22;49473;50.772;8.768;2023-07-24T02:13:10;15.30;99.90
2387;DHT22;49473;50.772;8.768;2023-07-24T02:15:37;15.20;99.90
2387;DHT22;49473;50.772;8.768;2023-07-24T02:18:06;15.30;99.90
2387;DHT22;49473;50.772;8.768;2023-07-24T02:20:33;15.30;99.90
2387;DHT22;49473;50.772;8.768;2023-07-24T02:23:00;15.40;99.90
2387;DHT22;49473;50.772;8.768;2023-07-24T02:25:26;15.30;99.90
2387;DHT22;49473;50.772;8.768;2023-07-24T02:27:53;15.30;99.90
2387;DHT22;49473;50.772;8.768;2023-07-24T02:30:20;15.40;99.90
2387;DHT22;49473;50.772;8.768;2023-07-24T02:32:47;15.40;99.90
2387;DHT22;49473;50.772;8.768;2023-07-24T02:35:15;15.50;99.90
2387;DHT22;49473;50.772;8.768;2023-07-24T02:37:43;15.50;99.90
2387;DHT22;49473;50.772;8.768;2023-07-24T02:40:11;15.40;99.90
2387;DHT22;49473;50.772;8.768;2023-07-24T02:42:38;15.40;99.90
2387;DHT22;49473;50.772;8.768;2023-07-24T02:45:06;15.40;99.90
2387;DHT22;49473;50.772;8.768;2023-07-24T02:47:36;15.50;99.90
2387;DHT22;49473;50.772;8.768;2023-07-24T02:50:03;15.40;99.90
2387;DHT22;49473;50.772;8.768;2023-07-24T02:52:31;15.40;99.90
2387;DHT22;49473;50.772;8.768;2023-07-24T02:54:58;15.40;99.90
2387;DHT22;49473;50.772;8.768;2023-07-24T02:57:25;15.30;99.90
2387;DHT22;49473;50.772;8.768;2023-07-24T02:59:51;15.30;99.90
2387;DHT22;49473;50.772;8.768;2023-07-24T03:02:18;15.30;99.90
2387;DHT22;49473;50.772;8.768;2023-07-24T03:04:45;15.30;99.90
2387;DHT22;49473;50.772;8.768;2023-07-24T03:07:12;15.20;99.90
2387;DHT22;49473;50.772;8.768;2023-07-24T03:09:40;15.20;99.90
2387;DHT22;49473;50.772;8.768;2023-07-24T03:12:07;15.20;99.90
2387;DHT22;49473;50.772;8.768;2023-07-24T03:14:34;15.20;99.90
2387;DHT22;49473;50.772;8.768;2023-07-24T03:17:00;15.20;99.90
2387;DHT22;49473;50.772;8.768;2023-07-24T03:19:27;15.30;99.90
2387;DHT22;49473;50.772;8.768;2023-07-24T03:21:54;15.30;99.90
2387;DHT22;49473;50.772;8.768;2023-07-24T03:24:21;15.20;99.90
2387;DHT22;49473;50.772;8.768;2023-07-24T03:26:49;15.20;99.90
2387;DHT22;49473;50.772;8.768;2023-07-24T03:29:16;15.20;99.90
2387;DHT22;49473;50.772;8.768;2023-07-24T03:31:43;15.20;99.90
2387;DHT22;49473;50.772;8.768;2023-07-24T03:34:09;15.30;99.90
2387;DHT22;49473;50.772;8.768;2023-07-24T03:36:36;15.30;99.90
2387;DHT22;49473;50.772;8.768;2023-07-24T03:39:06;15.20;99.90
2387;DHT22;49473;50.772;8.768;2023-07-24T03:41:33;15.20;99.90
2387;DHT22;49473;50.772;8.768;2023-07-24T03:44:01;15.20;99.90
2387;DHT22;49473;50.772;8.768;2023-07-24T03:46:28;15.30;99.90
2387;DHT22;49473;50.772;8.768;2023-07-24T03:48:55;15.40;99.90
2387;DHT22;49473;50.772;8.768;2023-07-24T03:51:21;15.40;99.90
2387;DHT22;49473;50.772;8.768;2023-07-24T03:53:48;15.30;99.90
2387;DHT22;49473;50.772;8.768;2023-07-24T03:56:15;15.30;99.90
2387;DHT22;49473;50.772;8.768;2023-07-24T03:58:42;15.40;99.90
2387;DHT22;49473;50.772;8.768;2023-07-24T04:01:10;15.50;99.90
2387;DHT22;49473;50.772;8.768;2023-07-24T04:03:37;15.50;99.90
2387;DHT22;49473;50.772;8.768;2023-07-24T04:06:03;15.40;99.90
2387;DHT22;49473;50.772;8.768;2023-07-24T04:08:30;15.40;99.90
2387;DHT22;49473;50.772;8.768;2023-07-24T04:10:57;15.40;99.90
2387;DHT22;49473;50.772;8.768;2023-07-24T04:13:24;15.50;99.90
2387;DHT22;49473;50.772;8.768;2023-07-24T04:15:50;15.50;99.90
2387;DHT22;49473;50.772;8.768;2023-07-24T04:18:18;15.50;99.90
2387;DHT22;49473;50.772;8.768;2023-07-24T04:20:45;15.40;99.90
2387;DHT22;49473;50.772;8.768;2023-07-24T04:23:12;15.40;99.90
2387;DHT22;49473;50.772;8.768;2023-07-24T04:25:39;15.50;99.90
2387;DHT22;49473;50.772;8.768;2023-07-24T04:28:05;15.50;99.90
2387;DHT22;49473;50.772;8.768;2023-07-24T04:30:32;15.40;99.90
2387;DHT22;49473;50.772;8.768;2023-07-24T04:32:59;15.40;99.90
2387;DHT22;49473;50.772;8.768;2023-07-24T04:35:28;15.50;99.90
2387;DHT22;49473;50.772;8.768;2023-07-24T04:37:54;15.40;99.90
2387;DHT22;49473;50.772;8.768;2023-07-24T04:40:22;15.40;99.90
2387;DHT22;49473;50.772;8.768;2023-07-24T04:42:49;15.40;99.90
2387;DHT22;49473;50.772;8.768;2023-07-24T04:45:16;15.60;99.90
2387;DHT22;49473;50.772;8.768;2023-07-24T04:47:43;15.60;99.90
2387;DHT22;49473;50.772;8.768;2023-07-24T04:50:10;15.60;99.90
2387;DHT22;49473;50.772;8.768;2023-07-24T04:52:38;15.60;99.90
2387;DHT22;49473;50.772;8.768;2023-07-24T04:55:06;15.70;99.90
2387;DHT22;49473;50.772;8.768;2023-07-24T04:57:32;15.80;99.90
2387;DHT22;49473;50.772;8.768;2023-07-24T04:59:59;16.00;99.90
2387;DHT22;49473;50.772;8.768;2023-07-24T05:02:26;16.10;99.90
2387;DHT22;49473;50.772;8.768;2023-07-24T05:04:53;16.20;99.90
2387;DHT22;49473;50.772;8.768;2023-07-24T05:07:19;16.50;99.90
2387;DHT22;49473;50.772;8.768;2023-07-24T05:09:48;16.80;99.90
2387;DHT22;49473;50.772;8.768;2023-07-24T05:12:14;17.00;99.90
2387;DHT22;49473;50.772;8.768;2023-07-24T05:14:41;17.30;99.90
2387;DHT22;49473;50.772;8.768;2023-07-24T05:17:08;17.50;99.90
2387;DHT22;49473;50.772;8.768;2023-07-24T05:19:34;17.70;99.90
2387;DHT22;49473;50.772;8.768;2023-07-24T05:22:01;17.80;99.90
2387;DHT22;49473;50.772;8.768;2023-07-24T05:24:28;17.80;99.90
2387;DHT22;49473;50.772;8.768;2023-07-24T05:26:56;17.90;99.90
2387;DHT22;49473;50.772;8.768;2023-07-24T05:29:23;17.90;99.90
2387;DHT22;49473;50.772;8.768;2023-07-24T05:31:49;18.00;99.90
2387;DHT22;49473;50.772;8.768;2023-07-24T05:34:16;18.10;99.90
2387;DHT22;49473;50.772;8.768;2023-07-24T05:36:43;18.10;99.90
2387;DHT22;49473;50.772;8.768;2023-07-24T05:39:10;18.10;99.90
2387;DHT22;49473;50.772;8.768;2023-07-24T05:41:36;18.00;99.90
2387;DHT22;49473;50.772;8.768;2023-07-24T05:44:04;18.00;99.90
2387;DHT22;49473;50.772;8.768;2023-07-24T05:46:31;18.00;99.90
2387;DHT22;49473;50.772;8.768;2023-07-24T05:48:58;18.00;99.90
2387;DHT22;49473;50.772;8.768;2023-07-24T05:51:26;18.00;99.90
2387;DHT22;49473;50.772;8.768;2023-07-24T05:53:53;18.20;99.90
2387;DHT22;49473;50.772;8.768;2023-07-24T05:56:19;18.30;99.90
2387;DHT22;49473;50.772;8.768;2023-07-24T05:58:46;18.50;99.90
2387;DHT22;49473;50.772;8.768;2023-07-24T06:01:14;18.70;99.90
2387;DHT22;49473;50.772;8.768;2023-07-24T06:03:41;18.90;99.90
2387;DHT22;49473;50.772;8.768;2023-07-24T06:06:07;19.00;99.90
2387;DHT22;49473;50.772;8.768;2023-07-24T06:08:34;19.10;99.90
2387;DHT22;49473;50.772;8.768;2023-07-24T06:11:01;19.30;99.90
2387;DHT22;49473;50.772;8.768;2023-07-24T06:13:28;19.40;99.90
2387;DHT22;49473;50.772;8.768;2023-07-24T06:15:54;19.60;99.90
2387;DHT22;49473;50.772;8.768;2023-07-24T06:18:22;19.70;99.90
2387;DHT22;49473;50.772;8.768;2023-07-24T06:20:52;19.70;99.90
2387;DHT22;49473;50.772;8.768;2023-07-24T06:23:19;19.80;99.90
2387;DHT22;49473;50.772;8.768;2023-07-24T06:25:46;20.10;99.90
2387;DHT22;49473;50.772;8.768;2023-07-24T06:28:12;20.40;99.90
2387;DHT22;49473;50.772;8.768;2023-07-24T06:30:39;20.70;99.90
2387;DHT22;49473;50.772;8.768;2023-07-24T06:33:06;21.00;99.90
2387;DHT22;49473;50.772;8.768;2023-07-24T06:35:35;21.50;99.90
2387;DHT22;49473;50.772;8.768;2023-07-24T06:38:01;21.90;99.90
2387;DHT22;49473;50.772;8.768;2023-07-24T06:40:28;22.10;99.90
2387;DHT22;49473;50.772;8.768;2023-07-24T06:42:55;22.40;99.90
2387;DHT22;49473;50.772;8.768;2023-07-24T06:45:21;22.80;99.90
2387;DHT22;49473;50.772;8.768;2023-07-24T06:47:48;23.10;99.90
2387;DHT22;49473;50.772;8.768;2023-07-24T06:50:15;23.80;99.90
2387;DHT22;49473;50.772;8.768;2023-07-24T06:52:43;24.40;99.90
2387;DHT22;49473;50.772;8.768;2023-07-24T06:55:09;25.10;99.90
2387;DHT22;49473;50.772;8.768;2023-07-24T06:57:36;25.30;99.90
2387;DHT22;49473;50.772;8.768;2023-07-24T07:00:03;25.10;99.90
2387;DHT22;49473;50.772;8.768;2023-07-24T07:02:30;25.20;99.90
2387;DHT22;49473;50.772;8.768;2023-07-24T07:04:57;25.50;99.90
2387;DHT22;49473;50.772;8.768;2023-07-24T07:07:24;25.70;99.90
2387;DHT22;49473;50.772;8.768;2023-07-24T07:09:52;26.00;99.90
2387;DHT22;49473;50.772;8.768;2023-07-24T07:12:19;26.40;99.90
2387;DHT22;49473;50.772;8.768;2023-07-24T07:14:46;26.50;99.90
2387;DHT22;49473;50.772;8.768;2023-07-24T07:17:12;26.70;99.90
2387;DHT22;49473;50.772;8.768;2023-07-24T07:19:39;26.80;99.90
2387;DHT22;49473;50.772;8.768;2023-07-24T07:22:06;27.30;99.90
2387;DHT22;49473;50.772;8.768;2023-07-24T07:24:33;28.00;99.90
2387;DHT22;49473;50.772;8.768;2023-07-24T07:27:01;28.60;99.90
2387;DHT22;49473;50.772;8.768;2023-07-24T07:29:27;28.90;99.90
2387;DHT22;49473;50.772;8.768;2023-07-24T07:31:54;29.40;99.90
2387;DHT22;49473;50.772;8.768;2023-07-24T07:34:21;29.30;99.90
2387;DHT22;49473;50.772;8.768;2023-07-24T07:36:47;29.80;99.90
2387;DHT22;49473;50.772;8.768;2023-07-24T07:39:14;30.30;99.90
2387;DHT22;49473;50.772;8.768;2023-07-24T07:41:41;30.30;99.90
2387;DHT22;49473;50.772;8.768;2023-07-24T07:44:09;30.30;99.90
2387;DHT22;49473;50.772;8.768;2023-07-24T07:46:35;30.50;99.90
2387;DHT22;49473;50.772;8.768;2023-07-24T07:49:02;31.20;99.90
2387;DHT22;49473;50.772;8.768;2023-07-24T07:51:29;31.30;99.90
2387;DHT22;49473;50.772;8.768;2023-07-24T07:53:55;30.20;99.90
2387;DHT22;49473;50.772;8.768;2023-07-24T07:56:22;29.60;99.90
2387;DHT22;49473;50.772;8.768;2023-07-24T07:58:49;29.00;99.90
2387;DHT22;49473;50.772;8.768;2023-07-24T08:01:17;28.20;99.90
2387;DHT22;49473;50.772;8.768;2023-07-24T08:03:44;27.20;99.90
2387;DHT22;49473;50.772;8.768;2023-07-24T08:06:10;26.70;99.90
2387;DHT22;49473;50.772;8.768;2023-07-24T08:08:37;26.10;99.90
2387;DHT22;49473;50.772;8.768;2023-07-24T08:11:05;25.80;99.90
2387;DHT22;49473;50.772;8.768;2023-07-24T08:13:32;25.10;99.90
2387;DHT22;49473;50.772;8.768;2023-07-24T08:15:59;25.20;99.90
2387;DHT22;49473;50.772;8.768;2023-07-24T08:18:29;25.20;99.90
2387;DHT22;49473;50.772;8.768;2023-07-24T08:20:56;25.20;99.90
2387;DHT22;49473;50.772;8.768;2023-07-24T08:23:23;24.80;99.90
2387;DHT22;49473;50.772;8.768;2023-07-24T08:25:54;24.60;99.90
2387;DHT22;49473;50.772;8.768;2023-07-24T08:28:21;24.30;99.90
2387;DHT22;49473;50.772;8.768;2023-07-24T08:30:56;24.20;99.90
2387;DHT22;49473;50.772;8.768;2023-07-24T08:33:23;24.10;99.90
2387;DHT22;49473;50.772;8.768;2023-07-24T08:35:59;24.20;99.90
2387;DHT22;49473;50.772;8.768;2023-07-24T08:38:26;24.30;99.90
2387;DHT22;49473;50.772;8.768;2023-07-24T08:41:00;24.60;99.90
2387;DHT22;49473;50.772;8.768;2023-07-24T08:43:27;25.00;99.90
2387;DHT22;49473;50.772;8.768;2023-07-24T08:45:55;25.30;99.90
2387;DHT22;49473;50.772;8.768;2023-07-24T08:48:22;25.70;99.90
2387;DHT22;49473;50.772;8.768;2023-07-24T08:50:50;26.40;99.90
2387;DHT22;49473;50.772;8.768;2023-07-24T08:53:20;26.60;99.90
2387;DHT22;49473;50.772;8.768;2023-07-24T08:55:48;26.50;99.90
2387;DHT22;49473;50.772;8.768;2023-07-24T08:58:15;26.30;99.90
2387;DHT22;49473;50.772;8.768;2023-07-24T09:00:42;26.40;99.90
2387;DHT22;49473;50.772;8.768;2023-07-24T09:03:09;26.00;99.90
2387;DHT22;49473;50.772;8.768;2023-07-24T09:05:36;25.90;99.90
2387;DHT22;49473;50.772;8.768;2023-07-24T09:08:03;25.90;99.90
2387;DHT22;49473;50.772;8.768;2023-07-24T09:10:32;25.90;99.90
2387;DHT22;49473;50.772;8.768;2023-07-24T09:12:58;25.70;99.90
2387;DHT22;49473;50.772;8.768;2023-07-24T09:15:25;25.60;99.90
2387;DHT22;49473;50.772;8.768;2023-07-24T09:17:53;25.50;99.90
2387;DHT22;49473;50.772;8.768;2023-07-24T09:20:20;25.80;99.90
2387;DHT22;49473;50.772;8.768;2023-07-24T09:22:51;26.70;99.90
2387;DHT22;49473;50.772;8.768;2023-07-24T09:25:18;27.70;99.90
2387;DHT22;49473;50.772;8.768;2023-07-24T09:27:46;28.20;99.90
2387;DHT22;49473;50.772;8.768;2023-07-24T09:30:13;28.90;99.90
2387;DHT22;49473;50.772;8.768;2023-07-24T09:32:41;29.10;99.90
2387;DHT22;49473;50.772;8.768;2023-07-24T09:35:16;28.90;99.90
2387;DHT22;49473;50.772;8.768;2023-07-24T09:37:43;28.80;99.90
2387;DHT22;49473;50.772;8.768;2023-07-24T09:40:12;28.70;99.90
2387;DHT22;49473;50.772;8.768;2023-07-24T09:42:40;29.10;99.90
2387;DHT22;49473;50.772;8.768;2023-07-24T09:45:09;29.30;99.90
2387;DHT22;49473;50.772;8.768;2023-07-24T09:47:36;29.80;99.90
2387;DHT22;49473;50.772;8.768;2023-07-24T09:50:07;30.00;99.90
2387;DHT22;49473;50.772;8.768;2023-07-24T09:52:35;30.00;99.90
2387;DHT22;49473;50.772;8.768;2023-07-24T09:55:06;29.50;99.90
2387;DHT22;49473;50.772;8.768;2023-07-24T09:57:35;29.30;99.90
2387;DHT22;49473;50.772;8.768;2023-07-24T10:00:02;28.90;99.90
2387;DHT22;49473;50.772;8.768;2023-07-24T10:02:31;28.20;99.90
2387;DHT22;49473;50.772;8.768;2023-07-24T10:04:59;27.90;99.90
2387;DHT22;49473;50.772;8.768;2023-07-24T10:07:26;27.40;99.90
2387;DHT22;49473;50.772;8.768;2023-07-24T10:09:53;27.40;99.90
2387;DHT22;49473;50.772;8.768;2023-07-24T10:12:22;27.70;99.90
2387;DHT22;49473;50.772;8.768;2023-07-24T10:14:49;27.70;99.90
2387;DHT22;49473;50.772;8.768;2023-07-24T10:17:35;27.60;99.90
2387;DHT22;49473;50.772;8.768;2023-07-24T10:20:04;27.10;99.90
2387;DHT22;49473;50.772;8.768;2023-07-24T10:22:31;26.70;99.90
2387;DHT22;49473;50.772;8.768;2023-07-24T10:24:57;26.20;99.90
2387;DHT22;49473;50.772;8.768;2023-07-24T10:27:24;26.00;99.90
2387;DHT22;49473;50.772;8.768;2023-07-24T10:29:58;26.00;99.90
2387;DHT22;49473;50.772;8.768;2023-07-24T10:32:25;26.50;99.90
2387;DHT22;49473;50.772;8.768;2023-07-24T10:35:06;27.20;99.90
2387;DHT22;49473;50.772;8.768;2023-07-24T10:37:35;28.50;99.90
2387;DHT22;49473;50.772;8.768;2023-07-24T10:40:02;30.00;98.80
2387;DHT22;49473;50.772;8.768;2023-07-24T10:42:30;31.80;97.20
2387;DHT22;49473;50.772;8.768;2023-07-24T10:45:07;32.00;94.00
2387;DHT22;49473;50.772;8.768;2023-07-24T10:47:34;31.70;93.10
2387;DHT22;49473;50.772;8.768;2023-07-24T10:50:03;32.00;94.20
2387;DHT22;49473;50.772;8.768;2023-07-24T10:52:30;31.30;93.00
2387;DHT22;49473;50.772;8.768;2023-07-24T10:55:00;30.70;94.00
2387;DHT22;49473;50.772;8.768;2023-07-24T10:57:27;30.60;95.60
2387;DHT22;49473;50.772;8.768;2023-07-24T10:59:54;30.70;94.00
2387;DHT22;49473;50.772;8.768;2023-07-24T11:02:20;30.40;94.30
2387;DHT22;49473;50.772;8.768;2023-07-24T11:04:47;30.10;95.40
2387;DHT22;49473;50.772;8.768;2023-07-24T11:07:15;29.80;95.00
2387;DHT22;49473;50.772;8.768;2023-07-24T11:09:42;30.30;95.70
2387;DHT22;49473;50.772;8.768;2023-07-24T11:12:12;31.60;93.80
2387;DHT22;49473;50.772;8.768;2023-07-24T11:14:52;32.10;93.50
2387;DHT22;49473;50.772;8.768;2023-07-24T11:17:20;32.30;92.00
2387;DHT22;49473;50.772;8.768;2023-07-24T11:19:46;32.10;90.90
2387;DHT22;49473;50.772;8.768;2023-07-24T11:22:15;31.90;92.30
2387;DHT22;49473;50.772;8.768;2023-07-24T11:24:45;31.50;92.40
2387;DHT22;49473;50.772;8.768;2023-07-24T11:27:13;31.60;92.60
2387;DHT22;49473;50.772;8.768;2023-07-24T11:29:41;31.20;92.20
2387;DHT22;49473;50.772;8.768;2023-07-24T11:32:08;30.60;93.30
2387;DHT22;49473;50.772;8.768;2023-07-24T11:34:35;30.10;94.20
2387;DHT22;49473;50.772;8.768;2023-07-24T11:37:02;29.80;94.20
2387;DHT22;49473;50.772;8.768;2023-07-24T11:39:30;29.80;95.20
2387;DHT22;49473;50.772;8.768;2023-07-24T11:41:59;29.70;93.80
2387;DHT22;49473;50.772;8.768;2023-07-24T11:44:27;29.50;95.20
2387;DHT22;49473;50.772;8.768;2023-07-24T11:47:00;29.40;95.00
2387;DHT22;49473;50.772;8.768;2023-07-24T11:49:28;29.40;95.00
2387;DHT22;49473;50.772;8.768;2023-07-24T11:52:00;29.50;95.30
2387;DHT22;49473;50.772;8.768;2023-07-24T11:54:27;30.50;94.90
2387;DHT22;49473;50.772;8.768;2023-07-24T11:56:55;31.40;94.80
2387;DHT22;49473;50.772;8.768;2023-07-24T11:59:22;31.10;93.70
2387;DHT22;49473;50.772;8.768;2023-07-24T12:01:50;30.60;94.30
2387;DHT22;49473;50.772;8.768;2023-07-24T12:04:17;30.50;94.60
2387;DHT22;49473;50.772;8.768;2023-07-24T12:06:44;30.00;93.50
2387;DHT22;49473;50.772;8.768;2023-07-24T12:09:12;29.40;94.50
2387;DHT22;49473;50.772;8.768;2023-07-24T12:11:42;28.90;95.60
2387;DHT22;49473;50.772;8.768;2023-07-24T12:14:10;28.90;98.50
2387;DHT22;49473;50.772;8.768;2023-07-24T12:16:38;29.30;99.90
2387;DHT22;49473;50.772;8.768;2023-07-24T12:19:05;29.70;99.80
2387;DHT22;49473;50.772;8.768;2023-07-24T12:21:32;29.80;97.30
2387;DHT22;49473;50.772;8.768;2023-07-24T12:23:58;29.90;98.50
2387;DHT22;49473;50.772;8.768;2023-07-24T12:26:25;30.60;96.80
2387;DHT22;49473;50.772;8.768;2023-07-24T12:28:53;31.50;95.20
2387;DHT22;49473;50.772;8.768;2023-07-24T12:31:21;31.70;94.00
2387;DHT22;49473;50.772;8.768;2023-07-24T12:33:48;33.50;93.50
2387;DHT22;49473;50.772;8.768;2023-07-24T12:36:14;35.00;91.80
2387;DHT22;49473;50.772;8.768;2023-07-24T12:38:42;35.10;88.60
2387;DHT22;49473;50.772;8.768;2023-07-24T12:41:08;34.50;90.30
2387;DHT22;49473;50.772;8.768;2023-07-24T12:43:35;33.90;90.40
2387;DHT22;49473;50.772;8.768;2023-07-24T12:46:02;33.40;90.70
2387;DHT22;49473;50.772;8.768;2023-07-24T12:48:30;33.90;88.80
2387;DHT22;49473;50.772;8.768;2023-07-24T12:50:57;34.10;89.50
2387;DHT22;49473;50.772;8.768;2023-07-24T12:53:25;33.50;88.30
2387;DHT22;49473;50.772;8.768;2023-07-24T12:55:52;32.70;90.40
2387;DHT22;49473;50.772;8.768;2023-07-24T12:58:19;32.10;90.50
2387;DHT22;49473;50.772;8.768;2023-07-24T13:00:46;33.20;90.10
2387;DHT22;49473;50.772;8.768;2023-07-24T13:03:12;33.30;86.80
2387;DHT22;49473;50.772;8.768;2023-07-24T13:05:40;32.70;88.80
2387;DHT22;49473;50.772;8.768;2023-07-24T13:08:07;31.60;90.20
2387;DHT22;49473;50.772;8.768;2023-07-24T13:10:34;31.00;90.60
2387;DHT22;49473;50.772;8.768;2023-07-24T13:13:01;30.60;91.60
2387;DHT22;49473;50.772;8.768;2023-07-24T13:15:28;30.20;91.70
2387;DHT22;49473;50.772;8.768;2023-07-24T13:17:57;30.00;93.00
2387;DHT22;49473;50.772;8.768;2023-07-24T13:20:24;30.10;91.80
2387;DHT22;49473;50.772;8.768;2023-07-24T13:22:52;29.90;92.20
2387;DHT22;49473;50.772;8.768;2023-07-24T13:25:19;29.70;92.80
2387;DHT22;49473;50.772;8.768;2023-07-24T13:27:46;29.20;92.70
2387;DHT22;49473;50.772;8.768;2023-07-24T13:30:12;28.40;94.60
2387;DHT22;49473;50.772;8.768;2023-07-24T13:32:39;28.10;94.40
2387;DHT22;49473;50.772;8.768;2023-07-24T13:35:07;27.60;95.50
2387;DHT22;49473;50.772;8.768;2023-07-24T13:37:33;27.10;97.80
2387;DHT22;49473;50.772;8.768;2023-07-24T13:40:01;26.60;99.50
2387;DHT22;49473;50.772;8.768;2023-07-24T13:42:28;26.10;99.90
2387;DHT22;49473;50.772;8.768;2023-07-24T13:44:55;25.40;99.90
2387;DHT22;49473;50.772;8.768;2023-07-24T13:47:22;24.70;99.90
2387;DHT22;49473;50.772;8.768;2023-07-24T13:49:48;23.90;99.90
2387;DHT22;49473;50.772;8.768;2023-07-24T13:52:15;23.10;99.90
2387;DHT22;49473;50.772;8.768;2023-07-24T13:54:42;22.40;99.90
2387;DHT22;49473;50.772;8.768;2023-07-24T13:57:10;21.90;99.90
2387;DHT22;49473;50.772;8.768;2023-07-24T13:59:37;21.50;99.90
2387;DHT22;49473;50.772;8.768;2023-07-24T14:02:05;21.30;99.90
2387;DHT22;49473;50.772;8.768;2023-07-24T14:04:32;21.30;99.90
2387;DHT22;49473;50.772;8.768;2023-07-24T14:06:59;21.50;99.90
2387;DHT22;49473;50.772;8.768;2023-07-24T14:09:26;21.80;99.90
2387;DHT22;49473;50.772;8.768;2023-07-24T14:11:53;22.20;99.90
2387;DHT22;49473;50.772;8.768;2023-07-24T14:14:21;22.50;99.90
2387;DHT22;49473;50.772;8.768;2023-07-24T14:16:49;22.90;99.90
2387;DHT22;49473;50.772;8.768;2023-07-24T14:19:15;23.20;99.90
2387;DHT22;49473;50.772;8.768;2023-07-24T14:21:43;23.40;99.90
2387;DHT22;49473;50.772;8.768;2023-07-24T14:24:10;23.50;99.90
2387;DHT22;49473;50.772;8.768;2023-07-24T14:26:37;23.50;99.90
2387;DHT22;49473;50.772;8.768;2023-07-24T14:29:04;23.70;99.90
2387;DHT22;49473;50.772;8.768;2023-07-24T14:31:32;23.70;99.90
2387;DHT22;49473;50.772;8.768;2023-07-24T14:33:58;23.80;99.90
2387;DHT22;49473;50.772;8.768;2023-07-24T14:36:25;24.00;99.90
2387;DHT22;49473;50.772;8.768;2023-07-24T14:38:53;24.20;99.90
2387;DHT22;49473;50.772;8.768;2023-07-24T14:41:20;24.40;99.90
2387;DHT22;49473;50.772;8.768;2023-07-24T14:43:46;24.70;99.90
2387;DHT22;49473;50.772;8.768;2023-07-24T14:46:13;24.80;99.90
2387;DHT22;49473;50.772;8.768;2023-07-24T14:48:41;24.90;99.90
2387;DHT22;49473;50.772;8.768;2023-07-24T14:51:08;25.00;99.90
2387;DHT22;49473;50.772;8.768;2023-07-24T14:53:35;25.10;99.90
2387;DHT22;49473;50.772;8.768;2023-07-24T14:56:02;25.10;99.90
2387;DHT22;49473;50.772;8.768;2023-07-24T14:58:28;25.30;99.90
2387;DHT22;49473;50.772;8.768;2023-07-24T15:00:55;25.50;99.90
2387;DHT22;49473;50.772;8.768;2023-07-24T15:03:23;25.50;99.90
2387;DHT22;49473;50.772;8.768;2023-07-24T15:05:51;25.60;99.90
2387;DHT22;49473;50.772;8.768;2023-07-24T15:08:18;25.40;99.90
2387;DHT22;49473;50.772;8.768;2023-07-24T15:10:44;25.10;99.90
2387;DHT22;49473;50.772;8.768;2023-07-24T15:13:11;24.90;99.90
2387;DHT22;49473;50.772;8.768;2023-07-24T15:15:38;24.80;99.90
2387;DHT22;49473;50.772;8.768;2023-07-24T15:18:05;24.70;99.90
2387;DHT22;49473;50.772;8.768;2023-07-24T15:20:32;24.40;99.90
2387;DHT22;49473;50.772;8.768;2023-07-24T15:23:00;24.20;99.90
2387;DHT22;49473;50.772;8.768;2023-07-24T15:25:27;24.10;99.90
2387;DHT22;49473;50.772;8.768;2023-07-24T15:27:53;24.10;99.90
2387;DHT22;49473;50.772;8.768;2023-07-24T15:30:20;24.30;99.90
2387;DHT22;49473;50.772;8.768;2023-07-24T15:32:47;24.50;99.90
2387;DHT22;49473;50.772;8.768;2023-07-24T15:35:13;24.80;99.90
2387;DHT22;49473;50.772;8.768;2023-07-24T15:37:40;24.90;99.90
2387;DHT22;49473;50.772;8.768;2023-07-24T15:40:09;24.80;99.90
2387;DHT22;49473;50.772;8.768;2023-07-24T15:42:36;24.80;99.90
2387;DHT22;49473;50.772;8.768;2023-07-24T15:45:03;24.70;99.90
2387;DHT22;49473;50.772;8.768;2023-07-24T15:47:30;24.70;99.90